JZA043 CYSJ-CYUL
Flight info
| Callsign | JZA043 |
|---|---|
| Flight time | 1h 2m |
| Altitude | 34000 |
| Route | VITUX DCT KEBIG ROCKT3 |
| Aircraft | E75L/M-SDE3GILORVW/S |
Departure
| Time | 2026-05-06 21:44 |
|---|---|
| Airport | Saint John Airport (CYSJ) |
Arrival
| Time | 2026-05-06 22:46 |
|---|---|
| Airport | Montreal / Pierre Elliott Trudeau International Airport (CYUL) |
| Time | Latitude | Longitude | Altitude | Speed | Heading |
|---|---|---|---|---|---|
| 2026-05-06 21:27 | 45.32924 | -65.89197 | 389 ft | 0 kts | 69° |
| 2026-05-06 21:40 | 45.32926 | -65.89188 | 353 ft | 3 kts | 85° |
| 2026-05-06 21:40 | 45.32904 | -65.89151 | 347 ft | 8 kts | 147° |
| 2026-05-06 21:41 | 45.32844 | -65.89093 | 342 ft | 13 kts | 137° |
| 2026-05-06 21:41 | 45.32781 | -65.88968 | 337 ft | 18 kts | 122° |
| 2026-05-06 21:41 | 45.32708 | -65.88801 | 331 ft | 21 kts | 118° |
| 2026-05-06 21:41 | 45.32629 | -65.88605 | 328 ft | 19 kts | 121° |
| 2026-05-06 21:42 | 45.32550 | -65.88428 | 325 ft | 23 kts | 122° |
| 2026-05-06 21:42 | 45.32433 | -65.88319 | 319 ft | 21 kts | 149° |
| 2026-05-06 21:42 | 45.32293 | -65.88265 | 319 ft | 22 kts | 201° |
| 2026-05-06 21:42 | 45.32151 | -65.88240 | 317 ft | 21 kts | 162° |
| 2026-05-06 21:43 | 45.32010 | -65.88177 | 318 ft | 21 kts | 163° |
| 2026-05-06 21:43 | 45.31878 | -65.88116 | 321 ft | 19 kts | 171° |
| 2026-05-06 21:43 | 45.31762 | -65.88184 | 322 ft | 28 kts | 212° |
| 2026-05-06 21:43 | 45.31377 | -65.88511 | 332 ft | 99 kts | 210° |
| 2026-05-06 21:44 | 45.30645 | -65.89141 | 569 ft | 137 kts | 207° |
| 2026-05-06 21:44 | 45.29768 | -65.89895 | 1182 ft | 159 kts | 209° |
| 2026-05-06 21:44 | 45.28838 | -65.90701 | 2185 ft | 152 kts | 214° |
| 2026-05-06 21:44 | 45.27924 | -65.91487 | 2969 ft | 157 kts | 213° |
| 2026-05-06 21:45 | 45.27002 | -65.92378 | 3537 ft | 170 kts | 228° |
| 2026-05-06 21:45 | 45.26618 | -65.94080 | 4079 ft | 202 kts | 261° |
| 2026-05-06 21:45 | 45.26699 | -65.96250 | 4367 ft | 241 kts | 267° |
| 2026-05-06 21:45 | 45.26784 | -65.98671 | 5119 ft | 247 kts | 261° |
| 2026-05-06 21:46 | 45.26709 | -66.01123 | 6038 ft | 252 kts | 261° |
| 2026-05-06 21:46 | 45.26769 | -66.03623 | 7024 ft | 255 kts | 267° |
| 2026-05-06 21:46 | 45.27059 | -66.06102 | 8031 ft | 256 kts | 273° |
| 2026-05-06 21:46 | 45.27329 | -66.07732 | 8628 ft | 257 kts | 274° |
| 2026-05-06 21:47 | 45.27902 | -66.11051 | 9624 ft | 261 kts | 273° |
| 2026-05-06 21:47 | 45.28165 | -66.12758 | 10113 ft | 262 kts | 272° |
| 2026-05-06 21:47 | 45.28521 | -66.15404 | 10284 ft | 284 kts | 271° |
| 2026-05-06 21:47 | 45.28884 | -66.18280 | 10455 ft | 304 kts | 272° |
| 2026-05-06 21:48 | 45.29286 | -66.21238 | 11066 ft | 307 kts | 272° |
| 2026-05-06 21:48 | 45.29719 | -66.24208 | 11742 ft | 309 kts | 273° |
| 2026-05-06 21:48 | 45.30166 | -66.27221 | 12350 ft | 313 kts | 273° |
| 2026-05-06 21:48 | 45.30633 | -66.30286 | 12750 ft | 325 kts | 275° |
| 2026-05-06 21:49 | 45.31179 | -66.33431 | 13349 ft | 330 kts | 276° |
| 2026-05-06 21:49 | 45.31763 | -66.36606 | 13915 ft | 334 kts | 276° |
| 2026-05-06 21:49 | 45.32343 | -66.39810 | 14563 ft | 335 kts | 276° |
| 2026-05-06 21:49 | 45.32899 | -66.43030 | 15253 ft | 336 kts | 275° |
| 2026-05-06 21:50 | 45.33445 | -66.46273 | 15917 ft | 339 kts | 275° |
| 2026-05-06 21:50 | 45.33991 | -66.49532 | 16587 ft | 341 kts | 275° |
| 2026-05-06 21:50 | 45.34547 | -66.52824 | 17273 ft | 344 kts | 275° |
| 2026-05-06 21:50 | 45.35113 | -66.56148 | 17968 ft | 348 kts | 276° |
| 2026-05-06 21:51 | 45.35684 | -66.59495 | 18653 ft | 349 kts | 277° |
| 2026-05-06 21:51 | 45.36257 | -66.62869 | 19242 ft | 353 kts | 277° |
| 2026-05-06 21:51 | 45.36832 | -66.66280 | 19890 ft | 357 kts | 277° |
| 2026-05-06 21:51 | 45.37412 | -66.69725 | 20573 ft | 360 kts | 277° |
| 2026-05-06 21:52 | 45.37996 | -66.73202 | 21195 ft | 364 kts | 278° |
| 2026-05-06 21:52 | 45.38586 | -66.76719 | 21769 ft | 368 kts | 278° |
| 2026-05-06 21:52 | 45.38932 | -66.78779 | 22100 ft | 370 kts | 278° |
| 2026-05-06 21:52 | 45.39528 | -66.82344 | 22703 ft | 372 kts | 278° |
| 2026-05-06 21:53 | 45.40126 | -66.85940 | 23269 ft | 376 kts | 278° |
| 2026-05-06 21:53 | 45.40734 | -66.89576 | 23780 ft | 378 kts | 278° |
| 2026-05-06 21:53 | 45.41344 | -66.93228 | 24315 ft | 380 kts | 277° |
| 2026-05-06 21:53 | 45.41954 | -66.96901 | 24816 ft | 383 kts | 277° |
| 2026-05-06 21:54 | 45.42567 | -67.00600 | 25305 ft | 385 kts | 277° |
| 2026-05-06 21:54 | 45.43181 | -67.04312 | 25917 ft | 384 kts | 277° |
| 2026-05-06 21:54 | 45.43792 | -67.07999 | 26604 ft | 381 kts | 276° |
| 2026-05-06 21:54 | 45.44396 | -67.11664 | 27279 ft | 379 kts | 276° |
| 2026-05-06 21:55 | 45.44996 | -67.15314 | 27891 ft | 378 kts | 276° |
| 2026-05-06 21:55 | 45.45592 | -67.18952 | 28499 ft | 376 kts | 276° |
| 2026-05-06 21:55 | 45.46186 | -67.22576 | 29087 ft | 375 kts | 275° |
| 2026-05-06 21:55 | 45.46775 | -67.26180 | 29706 ft | 374 kts | 275° |
| 2026-05-06 21:56 | 45.47363 | -67.29788 | 30270 ft | 374 kts | 275° |
| 2026-05-06 21:56 | 45.47948 | -67.33399 | 30720 ft | 374 kts | 274° |
| 2026-05-06 21:56 | 45.48534 | -67.37007 | 31204 ft | 373 kts | 274° |
| 2026-05-06 21:56 | 45.49117 | -67.40604 | 31668 ft | 372 kts | 274° |
| 2026-05-06 21:57 | 45.49698 | -67.44196 | 32107 ft | 372 kts | 274° |
| 2026-05-06 21:57 | 45.50276 | -67.47782 | 32549 ft | 371 kts | 274° |
| 2026-05-06 21:57 | 45.50851 | -67.51364 | 32968 ft | 370 kts | 274° |
| 2026-05-06 21:57 | 45.51423 | -67.54938 | 33384 ft | 370 kts | 274° |
| 2026-05-06 21:58 | 45.51996 | -67.58508 | 33805 ft | 369 kts | 273° |
| 2026-05-06 21:58 | 45.52567 | -67.62088 | 33955 ft | 374 kts | 274° |
| 2026-05-06 21:58 | 45.53723 | -67.69368 | 33928 ft | 380 kts | 273° |
| 2026-05-06 21:59 | 45.54310 | -67.73045 | 33821 ft | 380 kts | 273° |
| 2026-05-06 21:59 | 45.54894 | -67.76716 | 33836 ft | 380 kts | 273° |
| 2026-05-06 21:59 | 45.56053 | -67.84069 | 33824 ft | 380 kts | 273° |
| 2026-05-06 22:00 | 45.57212 | -67.91424 | 33823 ft | 380 kts | 273° |
| 2026-05-06 22:00 | 45.58365 | -67.98775 | 33816 ft | 380 kts | 273° |
| 2026-05-06 22:01 | 45.59510 | -68.06158 | 33814 ft | 383 kts | 272° |
| 2026-05-06 22:01 | 45.60668 | -68.13582 | 33812 ft | 383 kts | 272° |
| 2026-05-06 22:02 | 45.61812 | -68.21001 | 33803 ft | 382 kts | 272° |
| 2026-05-06 22:02 | 45.62947 | -68.28424 | 33796 ft | 382 kts | 272° |
| 2026-05-06 22:03 | 45.64118 | -68.35839 | 33795 ft | 382 kts | 272° |
| 2026-05-06 22:03 | 45.65281 | -68.43250 | 33770 ft | 380 kts | 272° |
| 2026-05-06 22:04 | 45.66379 | -68.50628 | 33792 ft | 380 kts | 271° |
| 2026-05-06 22:04 | 45.67500 | -68.58009 | 33784 ft | 381 kts | 272° |
| 2026-05-06 22:05 | 45.68618 | -68.65346 | 33784 ft | 380 kts | 272° |
| 2026-05-06 22:05 | 45.69734 | -68.72731 | 33790 ft | 380 kts | 271° |
| 2026-05-06 22:06 | 45.70816 | -68.80123 | 33761 ft | 381 kts | 272° |
| 2026-05-06 22:06 | 45.71909 | -68.87531 | 33783 ft | 380 kts | 272° |
| 2026-05-06 22:07 | 45.73004 | -68.94937 | 33787 ft | 381 kts | 272° |
| 2026-05-06 22:07 | 45.74097 | -69.02352 | 33789 ft | 380 kts | 272° |
| 2026-05-06 22:08 | 45.75186 | -69.09766 | 33788 ft | 381 kts | 272° |
| 2026-05-06 22:08 | 45.76272 | -69.17185 | 33765 ft | 383 kts | 271° |
| 2026-05-06 22:09 | 45.77352 | -69.24647 | 33788 ft | 383 kts | 271° |
| 2026-05-06 22:09 | 45.78429 | -69.32121 | 33799 ft | 383 kts | 271° |
| 2026-05-06 22:10 | 45.79495 | -69.39591 | 33795 ft | 383 kts | 271° |
| 2026-05-06 22:10 | 45.80568 | -69.47070 | 33801 ft | 383 kts | 271° |
| 2026-05-06 22:11 | 45.81633 | -69.54545 | 33805 ft | 383 kts | 271° |
| 2026-05-06 22:11 | 45.82687 | -69.62022 | 33806 ft | 382 kts | 271° |
| 2026-05-06 22:12 | 45.83742 | -69.69490 | 33806 ft | 382 kts | 271° |
| 2026-05-06 22:12 | 45.84778 | -69.76961 | 33808 ft | 382 kts | 270° |
| 2026-05-06 22:13 | 45.85774 | -69.84446 | 33805 ft | 382 kts | 270° |
| 2026-05-06 22:13 | 45.86819 | -69.91930 | 33790 ft | 384 kts | 272° |
| 2026-05-06 22:14 | 45.87865 | -69.99434 | 33799 ft | 383 kts | 271° |
| 2026-05-06 22:14 | 45.88903 | -70.06936 | 33806 ft | 383 kts | 271° |
| 2026-05-06 22:15 | 45.89925 | -70.14440 | 33807 ft | 383 kts | 271° |
| 2026-05-06 22:15 | 45.90937 | -70.21948 | 33815 ft | 383 kts | 271° |
| 2026-05-06 22:16 | 45.91947 | -70.29460 | 33852 ft | 383 kts | 271° |
| 2026-05-06 22:16 | 45.92970 | -70.36961 | 33816 ft | 382 kts | 272° |
| 2026-05-06 22:17 | 45.93972 | -70.44465 | 33814 ft | 383 kts | 271° |
| 2026-05-06 22:17 | 45.94972 | -70.51974 | 33816 ft | 383 kts | 271° |
| 2026-05-06 22:18 | 45.95959 | -70.59490 | 33818 ft | 383 kts | 271° |
| 2026-05-06 22:18 | 45.96947 | -70.67003 | 33862 ft | 382 kts | 271° |
| 2026-05-06 22:19 | 45.97914 | -70.74422 | 33814 ft | 374 kts | 271° |
| 2026-05-06 22:19 | 45.98867 | -70.81802 | 33830 ft | 376 kts | 271° |
| 2026-05-06 22:20 | 45.99198 | -70.89136 | 33857 ft | 364 kts | 259° |
| 2026-05-06 22:20 | 45.98975 | -70.96405 | 33827 ft | 364 kts | 260° |
| 2026-05-06 22:21 | 45.98798 | -71.03653 | 33823 ft | 361 kts | 261° |
| 2026-05-06 22:21 | 45.98634 | -71.10801 | 33798 ft | 352 kts | 261° |
| 2026-05-06 22:22 | 45.98463 | -71.17814 | 33850 ft | 352 kts | 261° |
| 2026-05-06 22:22 | 45.98292 | -71.24859 | 33834 ft | 352 kts | 261° |
| 2026-05-06 22:23 | 45.98118 | -71.31895 | 33828 ft | 352 kts | 261° |
| 2026-05-06 22:23 | 45.97937 | -71.38933 | 33789 ft | 354 kts | 261° |
| 2026-05-06 22:24 | 45.97842 | -71.42503 | 33178 ft | 359 kts | 261° |
| 2026-05-06 22:24 | 45.97748 | -71.46090 | 32505 ft | 360 kts | 261° |
| 2026-05-06 22:24 | 45.97652 | -71.49679 | 31837 ft | 359 kts | 261° |
| 2026-05-06 22:24 | 45.97558 | -71.53257 | 31238 ft | 358 kts | 262° |
| 2026-05-06 22:25 | 45.97465 | -71.56831 | 30614 ft | 358 kts | 262° |
| 2026-05-06 22:25 | 45.97368 | -71.60414 | 30003 ft | 359 kts | 262° |
| 2026-05-06 22:25 | 45.97271 | -71.64004 | 29311 ft | 361 kts | 262° |
| 2026-05-06 22:25 | 45.97172 | -71.67625 | 28611 ft | 364 kts | 262° |
| 2026-05-06 22:26 | 45.97071 | -71.71275 | 27923 ft | 366 kts | 262° |
| 2026-05-06 22:26 | 45.96969 | -71.74941 | 27242 ft | 368 kts | 263° |
| 2026-05-06 22:26 | 45.96866 | -71.78626 | 26574 ft | 370 kts | 263° |
| 2026-05-06 22:26 | 45.96796 | -71.81072 | 26132 ft | 371 kts | 263° |
| 2026-05-06 22:27 | 45.96654 | -71.86046 | 25271 ft | 373 kts | 263° |
| 2026-05-06 22:27 | 45.96583 | -71.88511 | 24968 ft | 372 kts | 263° |
| 2026-05-06 22:27 | 45.96476 | -71.92215 | 24393 ft | 372 kts | 264° |
| 2026-05-06 22:27 | 45.96366 | -71.95946 | 23565 ft | 374 kts | 264° |
| 2026-05-06 22:28 | 45.96259 | -71.99622 | 23181 ft | 363 kts | 263° |
| 2026-05-06 22:28 | 45.96151 | -72.03234 | 22818 ft | 361 kts | 263° |
| 2026-05-06 22:28 | 45.96040 | -72.06840 | 22433 ft | 361 kts | 263° |
| 2026-05-06 22:28 | 45.95928 | -72.10445 | 22093 ft | 360 kts | 263° |
| 2026-05-06 22:29 | 45.95816 | -72.14029 | 21729 ft | 357 kts | 263° |
| 2026-05-06 22:29 | 45.95705 | -72.17585 | 21373 ft | 355 kts | 263° |
| 2026-05-06 22:29 | 45.95593 | -72.21111 | 21020 ft | 352 kts | 263° |
| 2026-05-06 22:29 | 45.95481 | -72.24621 | 20666 ft | 350 kts | 263° |
| 2026-05-06 22:30 | 45.95368 | -72.28099 | 20317 ft | 347 kts | 263° |
| 2026-05-06 22:30 | 45.95255 | -72.31545 | 19971 ft | 345 kts | 263° |
| 2026-05-06 22:30 | 45.95143 | -72.34979 | 19644 ft | 342 kts | 263° |
| 2026-05-06 22:30 | 45.95025 | -72.38385 | 19204 ft | 339 kts | 261° |
| 2026-05-06 22:31 | 45.94438 | -72.41589 | 18838 ft | 329 kts | 243° |
| 2026-05-06 22:31 | 45.93374 | -72.44491 | 18398 ft | 328 kts | 241° |
| 2026-05-06 22:31 | 45.92328 | -72.47379 | 17918 ft | 324 kts | 242° |
| 2026-05-06 22:31 | 45.91289 | -72.50229 | 17525 ft | 321 kts | 241° |
| 2026-05-06 22:32 | 45.90251 | -72.53053 | 17276 ft | 319 kts | 241° |
| 2026-05-06 22:32 | 45.89207 | -72.55875 | 16806 ft | 321 kts | 241° |
| 2026-05-06 22:32 | 45.88163 | -72.58690 | 16395 ft | 318 kts | 242° |
| 2026-05-06 22:32 | 45.87147 | -72.61486 | 15972 ft | 316 kts | 242° |
| 2026-05-06 22:33 | 45.86124 | -72.64273 | 15560 ft | 314 kts | 241° |
| 2026-05-06 22:33 | 45.85100 | -72.67033 | 15135 ft | 313 kts | 241° |
| 2026-05-06 22:33 | 45.84079 | -72.69766 | 14724 ft | 307 kts | 241° |
| 2026-05-06 22:33 | 45.83089 | -72.72409 | 14317 ft | 295 kts | 241° |
| 2026-05-06 22:34 | 45.82134 | -72.74951 | 13943 ft | 284 kts | 241° |
| 2026-05-06 22:34 | 45.81210 | -72.77407 | 13551 ft | 275 kts | 241° |
| 2026-05-06 22:34 | 45.80317 | -72.79779 | 13188 ft | 266 kts | 241° |
| 2026-05-06 22:34 | 45.79452 | -72.82071 | 12851 ft | 258 kts | 241° |
| 2026-05-06 22:35 | 45.78610 | -72.84304 | 12513 ft | 252 kts | 242° |
| 2026-05-06 22:35 | 45.77777 | -72.86512 | 12186 ft | 252 kts | 242° |
| 2026-05-06 22:35 | 45.76937 | -72.88733 | 11845 ft | 256 kts | 242° |
| 2026-05-06 22:35 | 45.76091 | -72.90974 | 11512 ft | 255 kts | 242° |
| 2026-05-06 22:36 | 45.75244 | -72.93208 | 11179 ft | 255 kts | 242° |
| 2026-05-06 22:36 | 45.74400 | -72.95439 | 10842 ft | 255 kts | 242° |
| 2026-05-06 22:36 | 45.73557 | -72.97662 | 10508 ft | 254 kts | 242° |
| 2026-05-06 22:36 | 45.72719 | -72.99871 | 10260 ft | 251 kts | 242° |
| 2026-05-06 22:37 | 45.72007 | -73.02130 | 10159 ft | 251 kts | 254° |
| 2026-05-06 22:37 | 45.71709 | -73.04599 | 10086 ft | 253 kts | 258° |
| 2026-05-06 22:37 | 45.71424 | -73.07092 | 9989 ft | 253 kts | 258° |
| 2026-05-06 22:37 | 45.71147 | -73.09579 | 9989 ft | 254 kts | 258° |
| 2026-05-06 22:38 | 45.70872 | -73.12098 | 9802 ft | 256 kts | 259° |
| 2026-05-06 22:38 | 45.70551 | -73.14585 | 9709 ft | 253 kts | 255° |
| 2026-05-06 22:38 | 45.70083 | -73.17025 | 9353 ft | 258 kts | 253° |
| 2026-05-06 22:38 | 45.69582 | -73.19522 | 8500 ft | 262 kts | 254° |
| 2026-05-06 22:39 | 45.69099 | -73.22035 | 7568 ft | 263 kts | 255° |
| 2026-05-06 22:39 | 45.68619 | -73.24612 | 6794 ft | 271 kts | 256° |
| 2026-05-06 22:39 | 45.68149 | -73.27183 | 6479 ft | 264 kts | 256° |
| 2026-05-06 22:39 | 45.67687 | -73.29704 | 6128 ft | 261 kts | 257° |
| 2026-05-06 22:40 | 45.67231 | -73.32207 | 5792 ft | 259 kts | 257° |
| 2026-05-06 22:40 | 45.66777 | -73.34695 | 5452 ft | 260 kts | 257° |
| 2026-05-06 22:40 | 45.66318 | -73.37206 | 5115 ft | 262 kts | 257° |
| 2026-05-06 22:40 | 45.65856 | -73.39727 | 4761 ft | 262 kts | 257° |
| 2026-05-06 22:41 | 45.64935 | -73.44741 | 4068 ft | 259 kts | 257° |
| 2026-05-06 22:41 | 45.64477 | -73.47228 | 3730 ft | 258 kts | 257° |
| 2026-05-06 22:41 | 45.64022 | -73.49699 | 3386 ft | 256 kts | 257° |
| 2026-05-06 22:42 | 45.63559 | -73.52117 | 3410 ft | 242 kts | 254° |
| 2026-05-06 22:42 | 45.62940 | -73.54401 | 3636 ft | 261 kts | 240° |
| 2026-05-06 22:42 | 45.61635 | -73.56245 | 3224 ft | 267 kts | 218° |
| 2026-05-06 22:42 | 45.60175 | -73.57833 | 3032 ft | 256 kts | 223° |
| 2026-05-06 22:43 | 45.58939 | -73.59589 | 3302 ft | 253 kts | 227° |
| 2026-05-06 22:43 | 45.57618 | -73.61407 | 2732 ft | 272 kts | 223° |
| 2026-05-06 22:43 | 45.56223 | -73.63142 | 2322 ft | 256 kts | 223° |
| 2026-05-06 22:43 | 45.55005 | -73.64768 | 2005 ft | 231 kts | 225° |
| 2026-05-06 22:44 | 45.53900 | -73.66259 | 1704 ft | 208 kts | 223° |
| 2026-05-06 22:44 | 45.52912 | -73.67541 | 1422 ft | 177 kts | 222° |
| 2026-05-06 22:44 | 45.52073 | -73.68647 | 1183 ft | 153 kts | 223° |
| 2026-05-06 22:44 | 45.51339 | -73.69620 | 954 ft | 137 kts | 223° |
| 2026-05-06 22:45 | 45.50652 | -73.70523 | 785 ft | 132 kts | 222° |
| 2026-05-06 22:45 | 45.49980 | -73.71409 | 591 ft | 132 kts | 223° |
| 2026-05-06 22:45 | 45.49313 | -73.72302 | 454 ft | 131 kts | 222° |
| 2026-05-06 22:45 | 45.48638 | -73.73178 | 265 ft | 132 kts | 222° |
| 2026-05-06 22:46 | 45.47972 | -73.74052 | 120 ft | 124 kts | 222° |
| 2026-05-06 22:46 | 45.47409 | -73.74800 | 111 ft | 94 kts | 223° |
| 2026-05-06 22:46 | 45.47018 | -73.75309 | 106 ft | 60 kts | 222° |
| 2026-05-06 22:46 | 45.46796 | -73.75554 | 108 ft | 29 kts | 206° |
| 2026-05-06 22:47 | 45.46629 | -73.75619 | 109 ft | 17 kts | 193° |
| 2026-05-06 22:47 | 45.46506 | -73.75660 | 109 ft | 19 kts | 191° |
| 2026-05-06 22:47 | 45.46415 | -73.75689 | 107 ft | 4 kts | 193° |
| 2026-05-06 22:47 | 45.46410 | -73.75690 | 107 ft | 4 kts | 193° |
| 2026-05-06 22:48 | 45.46359 | -73.75694 | 104 ft | 10 kts | 192° |
| 2026-05-06 22:48 | 45.46270 | -73.75709 | 103 ft | 15 kts | 188° |
| 2026-05-06 22:48 | 45.46157 | -73.75720 | 103 ft | 17 kts | 174° |
| 2026-05-06 22:48 | 45.46134 | -73.75678 | 102 ft | 6 kts | 84° |
| 2026-05-06 22:49 | 45.46135 | -73.75605 | 102 ft | 10 kts | 90° |
| 2026-05-06 22:49 | 45.46136 | -73.75493 | 102 ft | 13 kts | 88° |
| 2026-05-06 22:49 | 45.46126 | -73.75371 | 103 ft | 11 kts | 140° |
| 2026-05-06 22:49 | 45.46045 | -73.75339 | 105 ft | 9 kts | 145° |
| 2026-05-06 22:50 | 45.46016 | -73.75254 | 106 ft | 11 kts | 113° |
| 2026-05-06 22:50 | 45.46005 | -73.75140 | 108 ft | 12 kts | 82° |
| 2026-05-06 22:50 | 45.46006 | -73.75028 | 109 ft | 3 kts | 129° |
| 2026-05-06 22:50 | 45.45981 | -73.75032 | 109 ft | 5 kts | 198° |
| 2026-05-06 22:51 | 45.45933 | -73.75041 | 108 ft | 7 kts | 175° |
| 2026-05-06 22:51 | 45.45920 | -73.75039 | 108 ft | 0 kts | 178° |